createdAt,value
2023-02-12T00:00:59.759Z,7.72
2023-02-12T00:05:00.450Z,7.89
2023-02-12T00:09:04.171Z,7.80
2023-02-12T00:13:05.253Z,7.73
2023-02-12T00:17:05.918Z,7.83
2023-02-12T00:21:09.038Z,7.66
2023-02-12T00:25:14.036Z,7.73
2023-02-12T00:29:14.494Z,7.48
2023-02-12T00:33:14.803Z,7.76
2023-02-12T00:37:15.292Z,7.40
2023-02-12T00:41:18.664Z,7.57
2023-02-12T00:45:19.137Z,7.57
2023-02-12T00:49:20.577Z,7.63
2023-02-12T00:53:24.172Z,7.53
2023-02-12T00:57:27.218Z,7.23
2023-02-12T01:01:28.271Z,7.37
2023-02-12T01:05:30.873Z,7.37
2023-02-12T01:09:31.245Z,7.54
2023-02-12T01:13:36.541Z,7.42
2023-02-12T01:17:37.057Z,7.43
2023-02-12T01:21:38.428Z,7.35
2023-02-12T01:25:40.827Z,7.26
2023-02-12T01:29:44.824Z,7.39
2023-02-12T01:33:46.934Z,7.41
2023-02-12T01:37:47.330Z,7.43
2023-02-12T01:41:49.338Z,7.47
2023-02-12T01:45:56.545Z,7.35
2023-02-12T01:49:57.248Z,7.48
2023-02-12T01:54:05.606Z,7.49
2023-02-12T01:58:10.186Z,7.33
2023-02-12T02:02:13.743Z,7.21
2023-02-12T02:06:20.025Z,7.36
2023-02-12T02:10:21.606Z,7.41
2023-02-12T02:14:35.074Z,7.22
2023-02-12T02:18:51.453Z,7.35
2023-02-12T02:23:11.644Z,7.19
2023-02-12T02:27:38.863Z,7.26
2023-02-12T02:31:49.786Z,7.30
2023-02-12T02:36:00.121Z,7.25
2023-02-12T02:40:12.743Z,7.31
2023-02-12T02:44:22.032Z,7.37
2023-02-12T02:48:32.566Z,7.20
2023-02-12T02:52:42.145Z,7.25
2023-02-12T02:56:48.893Z,7.09
2023-02-12T03:00:58.830Z,6.95
2023-02-12T03:05:09.208Z,6.88
2023-02-12T03:09:19.573Z,6.71
2023-02-12T03:13:29.091Z,6.90
2023-02-12T03:17:35.751Z,6.93
2023-02-12T03:21:51.589Z,6.99
2023-02-12T03:26:00.213Z,7.11
2023-02-12T03:30:02.282Z,7.13
2023-02-12T03:34:17.455Z,6.95
2023-02-12T03:38:37.688Z,7.03
2023-02-12T03:42:47.980Z,6.99
2023-02-12T03:47:05.769Z,6.93
2023-02-12T03:51:19.155Z,7.03
2023-02-12T03:55:22.948Z,7.05
2023-02-12T03:59:25.731Z,6.84
2023-02-12T04:03:26.347Z,7.07
2023-02-12T04:07:27.052Z,6.96
2023-02-12T04:11:43.854Z,7.00
2023-02-12T04:16:10.299Z,6.93
2023-02-12T04:20:25.860Z,7.03
2023-02-12T04:24:47.751Z,7.01
2023-02-12T04:29:05.884Z,7.21
2023-02-12T04:33:11.860Z,7.25
2023-02-12T04:37:20.804Z,7.27
2023-02-12T04:41:21.848Z,7.15
2023-02-12T04:45:29.219Z,7.26
2023-02-12T04:49:31.198Z,7.09
2023-02-12T04:53:31.972Z,7.19
2023-02-12T04:57:33.331Z,7.15
2023-02-12T05:01:37.609Z,7.16
2023-02-12T05:05:37.982Z,7.19
2023-02-12T05:09:39.025Z,7.41
2023-02-12T05:13:41.873Z,7.55
2023-02-12T05:17:45.958Z,7.36
2023-02-12T05:21:46.500Z,7.17
2023-02-12T05:25:46.783Z,7.11
2023-02-12T05:29:47.238Z,7.07
2023-02-12T05:33:52.593Z,7.14
2023-02-12T05:37:52.943Z,7.05
2023-02-12T05:41:53.380Z,7.16
2023-02-12T05:45:53.992Z,7.17
2023-02-12T05:49:57.178Z,7.30
2023-02-12T05:54:03.972Z,7.37
2023-02-12T05:58:04.479Z,7.34
2023-02-12T06:02:04.981Z,7.32
2023-02-12T06:06:08.680Z,7.27
2023-02-12T06:10:12.273Z,7.25
2023-02-12T06:14:17.548Z,7.33
2023-02-12T06:18:17.839Z,7.21
2023-02-12T06:22:20.934Z,7.10
2023-02-12T06:26:22.381Z,7.14
2023-02-12T06:30:23.893Z,7.25
2023-02-12T06:34:24.534Z,7.34
2023-02-12T06:38:27.616Z,7.38
2023-02-12T06:42:28.002Z,7.22
2023-02-12T06:46:28.952Z,7.29
2023-02-12T06:50:31.035Z,7.29
2023-02-12T06:54:34.540Z,7.26
2023-02-12T06:58:38.141Z,7.25
2023-02-12T07:02:39.187Z,7.25
2023-02-12T07:06:39.760Z,7.33
2023-02-12T07:10:43.810Z,7.32
2023-02-12T07:14:44.455Z,7.27
2023-02-12T07:18:46.419Z,7.46
2023-02-12T07:22:47.527Z,7.46
2023-02-12T07:26:51.025Z,7.64
2023-02-12T07:30:51.608Z,7.87
2023-02-12T07:34:51.847Z,7.74
2023-02-12T07:38:52.286Z,7.88
2023-02-12T07:42:58.553Z,7.95
2023-02-12T07:46:58.864Z,8.07
2023-02-12T07:50:59.197Z,8.13
2023-02-12T07:54:59.373Z,8.16
2023-02-12T07:59:05.756Z,8.24
2023-02-12T08:03:06.310Z,8.34
2023-02-12T08:07:06.716Z,8.44
2023-02-12T08:11:08.067Z,8.59
2023-02-12T08:15:12.292Z,8.73
2023-02-12T08:19:21.749Z,8.88
2023-02-12T08:23:24.257Z,9.13
2023-02-12T08:27:24.726Z,9.10
2023-02-12T08:31:32.487Z,9.10
2023-02-12T08:35:33.035Z,9.23
2023-02-12T08:39:33.937Z,9.26
2023-02-12T08:43:34.601Z,9.44
2023-02-12T08:47:37.815Z,9.53
2023-02-12T08:51:41.379Z,9.60
2023-02-12T08:55:42.055Z,9.78
2023-02-12T08:59:42.759Z,10.19
2023-02-12T09:03:47.230Z,10.23
2023-02-12T09:07:47.928Z,10.44
2023-02-12T09:11:49.584Z,10.24
2023-02-12T09:15:50.957Z,10.39
2023-02-12T09:19:54.008Z,10.54
2023-02-12T09:23:54.975Z,10.72
2023-02-12T09:27:55.573Z,10.96
2023-02-12T09:31:56.638Z,11.00
2023-02-12T09:36:03.711Z,11.05
2023-02-12T09:40:04.200Z,11.24
2023-02-12T09:44:14.520Z,11.24
2023-02-12T09:48:50.362Z,11.19
2023-02-12T09:52:59.012Z,10.96
2023-02-12T09:57:05.324Z,11.19
2023-02-12T10:01:16.657Z,11.39
2023-02-12T10:05:22.988Z,11.69
2023-02-12T10:09:51.871Z,11.82
2023-02-12T10:14:12.044Z,12.26
2023-02-12T10:18:52.033Z,12.55
2023-02-12T10:23:15.136Z,12.58
2023-02-12T10:27:20.379Z,12.73
2023-02-12T10:31:32.479Z,12.87
2023-02-12T10:35:35.533Z,12.68
2023-02-12T10:39:44.449Z,12.79
2023-02-12T10:43:47.584Z,12.60
2023-02-12T10:47:50.025Z,12.99
2023-02-12T10:52:21.122Z,13.25
2023-02-12T10:56:25.876Z,13.64
2023-02-12T11:00:36.616Z,13.82
2023-02-12T11:04:37.336Z,14.00
2023-02-12T11:08:41.027Z,14.41
2023-02-12T11:12:49.230Z,14.44
2023-02-12T11:16:58.266Z,14.46
2023-02-12T11:21:01.790Z,14.22
2023-02-12T11:25:14.134Z,14.16
2023-02-12T11:29:24.275Z,13.27
2023-02-12T11:33:35.636Z,13.59
2023-02-12T11:37:39.147Z,13.85
2023-02-12T11:41:44.489Z,14.10
2023-02-12T11:45:50.643Z,14.39
2023-02-12T11:49:59.320Z,14.65
2023-02-12T11:54:06.397Z,14.56
2023-02-12T11:58:17.510Z,14.96
2023-02-12T12:02:28.732Z,14.45
2023-02-12T12:06:40.935Z,14.53
2023-02-12T12:10:50.157Z,14.71
2023-02-12T12:15:07.288Z,14.21
2023-02-12T12:19:29.597Z,14.10
2023-02-12T12:23:41.347Z,14.13
2023-02-12T12:28:08.449Z,14.22
2023-02-12T12:32:12.214Z,14.11
2023-02-12T12:36:46.961Z,13.79
2023-02-12T12:41:06.416Z,13.91
2023-02-12T12:45:31.526Z,13.89
2023-02-12T12:49:50.641Z,13.91
2023-02-12T12:54:14.759Z,14.12
2023-02-12T12:58:36.713Z,14.14
2023-02-12T13:03:39.527Z,14.06
2023-02-12T13:07:53.407Z,14.01
2023-02-12T13:12:17.306Z,14.35
2023-02-12T13:16:30.903Z,14.15
2023-02-12T13:20:45.130Z,14.03
2023-02-12T13:24:54.962Z,14.07
2023-02-12T13:29:01.322Z,14.08
2023-02-12T13:33:14.784Z,13.88
2023-02-12T13:37:26.127Z,13.81
2023-02-12T13:41:28.365Z,13.83
2023-02-12T13:45:44.452Z,13.81
2023-02-12T13:49:58.988Z,13.92
2023-02-12T13:54:39.609Z,13.91
2023-02-12T13:58:54.407Z,13.87
2023-02-12T14:02:55.504Z,13.77
2023-02-12T14:07:06.805Z,13.42
2023-02-12T14:11:12.168Z,13.53
2023-02-12T14:15:29.220Z,13.43
2023-02-12T14:20:08.958Z,13.40
2023-02-12T14:24:55.464Z,13.99
2023-02-12T14:29:00.140Z,14.07
2023-02-12T14:33:23.543Z,13.84
2023-02-12T14:37:41.639Z,13.54
2023-02-12T14:41:44.480Z,13.07
2023-02-12T14:45:44.543Z,13.09
2023-02-12T14:49:50.325Z,13.28
2023-02-12T14:53:53.634Z,12.93
2023-02-12T14:58:02.924Z,13.15
2023-02-12T15:02:05.971Z,13.26
2023-02-12T15:06:18.755Z,13.40
2023-02-12T15:10:23.053Z,13.17
2023-02-12T15:14:30.120Z,13.08
2023-02-12T15:18:45.250Z,13.03
2023-02-12T15:22:46.641Z,12.85
2023-02-12T15:26:51.705Z,12.63
2023-02-12T15:30:58.878Z,12.46
2023-02-12T15:35:00.124Z,12.33
2023-02-12T15:39:04.264Z,12.08
2023-02-12T15:43:07.793Z,11.86
2023-02-12T15:47:24.157Z,11.81
2023-02-12T15:51:37.018Z,11.83
2023-02-12T15:55:42.384Z,11.83
2023-02-12T15:59:43.623Z,11.80
2023-02-12T16:03:47.035Z,11.54
2023-02-12T16:07:49.472Z,11.27
2023-02-12T16:11:51.315Z,11.32
2023-02-12T16:16:09.204Z,10.99
2023-02-12T16:20:27.802Z,11.03
2023-02-12T16:24:36.249Z,10.93
2023-02-12T16:28:36.557Z,10.92
2023-02-12T16:32:40.266Z,10.87
2023-02-12T16:36:49.986Z,10.71
2023-02-12T16:41:30.992Z,10.88
2023-02-12T16:45:45.307Z,10.89
2023-02-12T16:49:58.723Z,10.82
2023-02-12T16:54:04.399Z,10.80
2023-02-12T16:58:04.835Z,10.74
2023-02-12T17:02:12.634Z,10.67
2023-02-12T17:06:13.504Z,10.28
2023-02-12T17:10:20.243Z,10.52
2023-02-12T17:14:23.038Z,10.50
2023-02-12T17:18:23.795Z,10.40
2023-02-12T17:22:30.060Z,10.51
2023-02-12T17:26:32.934Z,10.46
2023-02-12T17:30:33.184Z,10.11
2023-02-12T17:34:46.565Z,10.18
2023-02-12T17:38:48.538Z,10.37
2023-02-12T17:42:51.333Z,10.21
2023-02-12T17:46:51.920Z,10.18
2023-02-12T17:50:58.483Z,10.22
2023-02-12T17:54:58.794Z,10.10
2023-02-12T17:59:02.566Z,10.07
2023-02-12T18:03:02.793Z,10.06
2023-02-12T18:07:02.952Z,10.10
2023-02-12T18:11:10.085Z,10.21
2023-02-12T18:15:15.129Z,10.00
2023-02-12T18:19:16.928Z,9.98
2023-02-12T18:23:17.638Z,9.78
2023-02-12T18:27:19.482Z,9.88
2023-02-12T18:31:24.367Z,9.73
2023-02-12T18:35:24.705Z,9.86
2023-02-12T18:39:26.226Z,9.45
2023-02-12T18:43:26.578Z,9.73
2023-02-12T18:47:29.404Z,9.86
2023-02-12T18:51:36.757Z,9.94
2023-02-12T18:55:37.083Z,9.66
2023-02-12T18:59:37.245Z,9.78
2023-02-12T19:03:40.260Z,9.68
2023-02-12T19:07:41.037Z,9.65
2023-02-12T19:11:41.358Z,9.61
2023-02-12T19:15:44.109Z,9.61
2023-02-12T19:19:47.032Z,9.51
2023-02-12T19:23:49.885Z,9.64
2023-02-12T19:27:50.068Z,9.39
2023-02-12T19:31:50.596Z,9.40
2023-02-12T19:35:55.395Z,9.53
2023-02-12T19:39:55.917Z,9.17
2023-02-12T19:43:58.431Z,9.42
2023-02-12T19:47:58.575Z,9.37
2023-02-12T19:52:01.763Z,9.39
2023-02-12T19:56:05.050Z,9.31
2023-02-12T20:00:05.504Z,9.06
2023-02-12T20:04:07.603Z,8.99
2023-02-12T20:08:10.563Z,8.98
2023-02-12T20:12:11.031Z,8.96
2023-02-12T20:16:16.144Z,8.49
2023-02-12T20:20:16.882Z,9.15
2023-02-12T20:24:19.657Z,9.13
2023-02-12T20:28:20.299Z,8.91
2023-02-12T20:32:21.958Z,9.00
2023-02-12T20:36:22.048Z,8.99
2023-02-12T20:40:35.793Z,8.92
2023-02-12T20:44:36.950Z,9.05
2023-02-12T20:48:37.476Z,8.95
2023-02-12T20:52:37.915Z,8.90
2023-02-12T20:56:41.834Z,8.54
2023-02-12T21:00:42.024Z,8.42
2023-02-12T21:04:42.275Z,8.02
2023-02-12T21:08:45.049Z,7.35
2023-02-12T21:12:47.955Z,7.27
2023-02-12T21:16:48.560Z,7.13
2023-02-12T21:20:48.863Z,6.55
2023-02-12T21:24:51.953Z,6.44
2023-02-12T21:28:56.407Z,6.60
2023-02-12T21:32:56.722Z,6.52
2023-02-12T21:36:59.568Z,6.31
2023-02-12T21:40:59.888Z,6.11
2023-02-12T21:45:03.803Z,5.75
2023-02-12T21:49:04.819Z,6.03
2023-02-12T21:53:04.969Z,5.89
2023-02-12T21:57:05.096Z,5.80
2023-02-12T22:01:14.430Z,5.62
2023-02-12T22:05:14.768Z,5.79
2023-02-12T22:09:17.524Z,5.66
2023-02-12T22:13:17.632Z,5.43
2023-02-12T22:17:20.446Z,5.33
2023-02-12T22:21:21.466Z,5.13
2023-02-12T22:25:22.207Z,5.14
2023-02-12T22:29:23.651Z,4.98
2023-02-12T22:33:28.274Z,4.96
2023-02-12T22:37:29.079Z,4.77
2023-02-12T22:41:30.166Z,4.93
2023-02-12T22:45:30.612Z,5.03
2023-02-12T22:49:34.287Z,4.87
2023-02-12T22:53:34.347Z,4.67
2023-02-12T22:57:34.597Z,4.68
2023-02-12T23:01:35.172Z,4.46
2023-02-12T23:05:39.422Z,4.57
2023-02-12T23:09:39.540Z,4.60
2023-02-12T23:13:40.258Z,4.41
2023-02-12T23:17:40.564Z,4.16
2023-02-12T23:21:43.605Z,3.93
2023-02-12T23:25:44.220Z,3.42
2023-02-12T23:29:44.374Z,3.80
2023-02-12T23:33:44.549Z,3.58
2023-02-12T23:37:47.264Z,3.74
2023-02-12T23:41:47.399Z,3.57
2023-02-12T23:45:47.981Z,3.74
2023-02-12T23:49:48.148Z,3.62
2023-02-12T23:53:51.542Z,3.61
2023-02-12T23:57:52.467Z,3.79
